Time,TemperatureF,DewpointF,PressureIn,WindDirection,WindDirectionDegrees,WindSpeedMPH,WindSpeedGustMPH,Humidity,HourlyPrecipIn,Conditions,Clouds,dailyrainin,SoftwareType,DateUTC
2013-02-15 00:09:00,34.3,26.6,29.62,ESE,112,10.4,-999.0,73,-99.99,,,0.00,Acu-Link.com,2013-02-15 05:09:00,
2013-02-15 00:24:00,34.2,25.8,29.63,NW,315,3.7,-999.0,71,-99.99,,,0.00,Acu-Link.com,2013-02-15 05:24:00,
2013-02-15 00:40:00,34.0,25.6,29.63,SSW,202,5.8,-999.0,71,-99.99,,,0.00,Acu-Link.com,2013-02-15 05:40:00,
2013-02-15 00:55:00,33.4,25.4,29.64,WSW,247,7.3,-999.0,72,-99.99,,,0.00,Acu-Link.com,2013-02-15 05:55:00,
2013-02-15 01:10:00,32.9,24.9,29.65,West,270,10.4,-999.0,72,-99.99,,,0.00,Acu-Link.com,2013-02-15 06:10:00,
2013-02-15 01:26:00,32.4,23.4,29.65,SW,225,3.2,-999.0,69,-99.99,,,0.00,Acu-Link.com,2013-02-15 06:26:00,
2013-02-15 01:41:00,32.0,23.0,29.66,SW,225,4.7,-999.0,69,-99.99,,,0.00,Acu-Link.com,2013-02-15 06:41:00,
2013-02-15 01:56:00,31.6,22.3,29.67,North,0,5.3,-999.0,68,-99.99,,,0.00,Acu-Link.com,2013-02-15 06:56:00,
2013-02-15 02:12:00,31.1,21.4,29.67,NNE,22,4.2,-999.0,67,-99.99,,,0.00,Acu-Link.com,2013-02-15 07:12:00,
2013-02-15 02:27:00,30.7,21.1,29.68,WSW,247,1.7,-999.0,67,-99.99,,,0.00,Acu-Link.com,2013-02-15 07:27:00,
2013-02-15 02:42:00,30.6,21.3,29.68,WSW,247,2.7,-999.0,68,-99.99,,,0.00,Acu-Link.com,2013-02-15 07:42:00,
2013-02-15 02:58:00,30.6,22.0,29.70,South,180,1.7,-999.0,70,-99.99,,,0.00,Acu-Link.com,2013-02-15 07:58:00,
2013-02-15 03:13:00,30.6,22.0,29.70,SSW,202,5.8,-999.0,70,-99.99,,,0.00,Acu-Link.com,2013-02-15 08:13:00,
2013-02-15 03:28:00,30.4,21.8,29.70,WSW,247,4.7,-999.0,70,-99.99,,,0.00,Acu-Link.com,2013-02-15 08:28:00,
2013-02-15 03:44:00,29.7,21.5,29.71,WNW,292,2.7,-999.0,71,-99.99,,,0.00,Acu-Link.com,2013-02-15 08:44:00,
2013-02-15 03:59:00,29.3,21.4,29.70,SW,225,3.2,-999.0,72,-99.99,,,0.00,Acu-Link.com,2013-02-15 08:59:00,
2013-02-15 04:17:00,29.3,21.4,29.70,SW,225,2.7,-999.0,72,-99.99,,,0.00,Acu-Link.com,2013-02-15 09:17:00,
2013-02-15 04:32:00,28.8,20.9,29.71,ESE,112,1.1,-999.0,72,-99.99,,,0.00,Acu-Link.com,2013-02-15 09:32:00,
2013-02-15 04:47:00,28.6,20.4,29.72,NNW,337,4.2,-999.0,71,-99.99,,,0.00,Acu-Link.com,2013-02-15 09:47:00,
2013-02-15 05:03:00,28.0,19.8,29.73,WSW,247,2.2,-999.0,71,-99.99,,,0.00,Acu-Link.com,2013-02-15 10:03:00,
2013-02-15 05:18:00,27.1,18.0,29.74,SW,225,3.2,-999.0,68,-99.99,,,0.00,Acu-Link.com,2013-02-15 10:18:00,
2013-02-15 05:33:00,26.4,17.3,29.75,SW,225,2.7,-999.0,68,-99.99,,,0.00,Acu-Link.com,2013-02-15 10:33:00,
2013-02-15 05:48:00,26.2,17.1,29.77,NNW,337,6.3,-999.0,68,-99.99,,,0.00,Acu-Link.com,2013-02-15 10:48:00,
2013-02-15 06:04:00,26.4,17.3,29.78,WNW,292,4.7,-999.0,68,-99.99,,,0.00,Acu-Link.com,2013-02-15 11:04:00,
2013-02-15 06:19:00,26.2,17.1,29.78,North,0,2.2,-999.0,68,-99.99,,,0.00,Acu-Link.com,2013-02-15 11:19:00,
2013-02-15 06:34:00,25.9,16.5,29.78,NW,315,10.4,-999.0,67,-99.99,,,0.00,Acu-Link.com,2013-02-15 11:34:00,
2013-02-15 06:49:00,25.7,16.3,29.79,WNW,292,1.7,-999.0,67,-99.99,,,0.00,Acu-Link.com,2013-02-15 11:49:00,
2013-02-15 07:05:00,25.5,16.1,29.79,South,180,5.8,-999.0,67,-99.99,,,0.00,Acu-Link.com,2013-02-15 12:05:00,
2013-02-15 07:20:00,25.3,15.9,29.80,WSW,247,3.7,-999.0,67,-99.99,,,0.00,Acu-Link.com,2013-02-15 12:20:00,
2013-02-15 07:35:00,25.2,16.1,29.81,WSW,247,4.2,-999.0,68,-99.99,,,0.00,Acu-Link.com,2013-02-15 12:35:00,
2013-02-15 07:50:00,25.3,16.9,29.81,WSW,247,3.2,-999.0,70,-99.99,,,0.00,Acu-Link.com,2013-02-15 12:50:00,
2013-02-15 08:06:00,25.3,16.9,29.82,NNE,22,5.8,-999.0,70,-99.99,,,0.00,Acu-Link.com,2013-02-15 13:06:00,
2013-02-15 08:21:00,25.0,16.3,29.83,NNE,22,3.2,-999.0,69,-99.99,,,0.00,Acu-Link.com,2013-02-15 13:21:00,
2013-02-15 08:36:00,26.1,16.3,29.84,North,0,4.7,-999.0,66,-99.99,,,0.00,Acu-Link.com,2013-02-15 13:36:00,
2013-02-15 08:52:00,26.1,14.5,29.84,NE,45,7.8,-999.0,61,-99.99,,,0.00,Acu-Link.com,2013-02-15 13:52:00,
2013-02-15 09:07:00,26.1,13.4,29.85,WNW,292,7.3,-999.0,58,-99.99,,,0.00,Acu-Link.com,2013-02-15 14:07:00,
2013-02-15 09:22:00,25.9,12.8,29.85,NNW,337,5.3,-999.0,57,-99.99,,,0.00,Acu-Link.com,2013-02-15 14:22:00,
2013-02-15 09:37:00,25.3,12.2,29.85,SW,225,3.2,-999.0,57,-99.99,,,0.00,Acu-Link.com,2013-02-15 14:37:00,
2013-02-15 09:53:00,26.2,12.7,29.85,NW,315,8.3,-999.0,56,-99.99,,,0.00,Acu-Link.com,2013-02-15 14:53:00,
2013-02-15 10:08:00,26.6,12.2,29.86,NW,315,5.3,-999.0,54,-99.99,,,0.00,Acu-Link.com,2013-02-15 15:08:00,
2013-02-15 10:23:00,27.3,12.5,29.86,NNW,337,3.7,-999.0,53,-99.99,,,0.00,Acu-Link.com,2013-02-15 15:23:00,
2013-02-15 10:39:00,28.6,12.8,29.86,SSE,157,4.7,-999.0,51,-99.99,,,0.00,Acu-Link.com,2013-02-15 15:39:00,
2013-02-15 10:54:00,28.9,12.6,29.87,NE,45,4.2,-999.0,50,-99.99,,,0.00,Acu-Link.com,2013-02-15 15:54:00,
2013-02-15 11:09:00,29.7,12.9,29.86,WNW,292,10.4,-999.0,49,-99.99,,,0.00,Acu-Link.com,2013-02-15 16:09:00,
2013-02-15 11:25:00,28.8,12.1,29.87,SW,225,7.8,-999.0,49,-99.99,,,0.00,Acu-Link.com,2013-02-15 16:25:00,
2013-02-15 11:40:00,28.0,11.3,29.87,North,0,3.2,-999.0,49,-99.99,,,0.00,Acu-Link.com,2013-02-15 16:40:00,
2013-02-15 11:55:00,28.2,11.5,29.87,North,0,8.9,-999.0,49,-99.99,,,0.00,Acu-Link.com,2013-02-15 16:55:00,
2013-02-15 12:11:00,27.5,10.4,29.87,South,180,5.8,-999.0,48,-99.99,,,0.00,Acu-Link.com,2013-02-15 17:11:00,
2013-02-15 12:26:00,28.2,11.1,29.88,West,270,3.7,-999.0,48,-99.99,,,0.00,Acu-Link.com,2013-02-15 17:26:00,
2013-02-15 12:41:00,27.7,10.1,29.87,West,270,5.8,-999.0,47,-99.99,,,0.00,Acu-Link.com,2013-02-15 17:41:00,
2013-02-15 12:56:00,30.0,12.2,29.87,South,180,3.2,-999.0,47,-99.99,,,0.00,Acu-Link.com,2013-02-15 17:56:00,
2013-02-15 13:12:00,28.0,9.9,29.87,SSW,202,2.7,-999.0,46,-99.99,,,0.00,Acu-Link.com,2013-02-15 18:12:00,
2013-02-15 13:27:00,30.0,10.2,29.86,South,180,2.7,-999.0,43,-99.99,,,0.00,Acu-Link.com,2013-02-15 18:27:00,
2013-02-15 13:42:00,29.1,8.4,29.87,NNE,22,7.8,-999.0,41,-99.99,,,0.00,Acu-Link.com,2013-02-15 18:42:00,
2013-02-15 13:58:00,30.9,9.5,29.85,West,270,5.3,-999.0,40,-99.99,,,0.00,Acu-Link.com,2013-02-15 18:58:00,
2013-02-15 14:13:00,29.1,8.9,29.86,NW,315,2.7,-999.0,42,-99.99,,,0.00,Acu-Link.com,2013-02-15 19:13:00,
2013-02-15 14:28:00,29.3,10.1,29.87,NW,315,4.2,-999.0,44,-99.99,,,0.00,Acu-Link.com,2013-02-15 19:28:00,
2013-02-15 14:43:00,29.5,9.8,29.87,West,270,3.2,-999.0,43,-99.99,,,0.00,Acu-Link.com,2013-02-15 19:43:00,
2013-02-15 14:59:00,29.1,10.4,29.87,NW,315,3.2,-999.0,45,-99.99,,,0.00,Acu-Link.com,2013-02-15 19:59:00,
2013-02-15 15:14:00,28.4,10.3,29.87,SW,225,4.2,-999.0,46,-99.99,,,0.00,Acu-Link.com,2013-02-15 20:14:00,
2013-02-15 15:29:00,28.4,10.8,29.87,NNW,337,3.2,-999.0,47,-99.99,,,0.00,Acu-Link.com,2013-02-15 20:29:00,
2013-02-15 16:00:00,27.7,10.1,29.87,SSW,202,2.2,-999.0,47,-99.99,,,0.00,Acu-Link.com,2013-02-15 21:00:00,
2013-02-15 16:16:00,27.1,10.0,29.88,NW,315,3.7,-999.0,48,-99.99,,,0.00,Acu-Link.com,2013-02-15 21:16:00,
2013-02-15 16:31:00,27.1,10.0,29.89,West,270,3.7,-999.0,48,-99.99,,,0.00,Acu-Link.com,2013-02-15 21:31:00,
2013-02-15 16:47:00,27.0,10.4,29.89,SW,225,3.7,-999.0,49,-99.99,,,0.00,Acu-Link.com,2013-02-15 21:47:00,
2013-02-15 17:02:00,27.0,10.4,29.89,South,180,3.2,-999.0,49,-99.99,,,0.00,Acu-Link.com,2013-02-15 22:02:00,
2013-02-15 17:17:00,26.4,9.9,29.90,NW,315,4.2,-999.0,49,-99.99,,,0.00,Acu-Link.com,2013-02-15 22:17:00,
2013-02-15 17:32:00,26.2,10.1,29.90,West,270,4.7,-999.0,50,-99.99,,,0.00,Acu-Link.com,2013-02-15 22:32:00,
2013-02-15 17:48:00,26.1,10.0,29.90,WNW,292,3.2,-999.0,50,-99.99,,,0.00,Acu-Link.com,2013-02-15 22:48:00,
2013-02-15 18:18:00,25.7,10.1,29.91,North,0,6.8,-999.0,51,-99.99,,,0.00,Acu-Link.com,2013-02-15 23:18:00,
2013-02-15 18:34:00,25.5,9.9,29.91,North,0,2.2,-999.0,51,-99.99,,,0.00,Acu-Link.com,2013-02-15 23:34:00,
2013-02-15 18:49:00,25.5,10.4,29.92,West,270,2.7,-999.0,52,-99.99,,,0.00,Acu-Link.com,2013-02-15 23:49:00,
2013-02-15 19:04:00,25.3,9.7,29.92,NE,45,1.1,-999.0,51,-99.99,,,0.00,Acu-Link.com,2013-02-16 00:04:00,
2013-02-15 19:20:00,25.3,9.7,29.93,WSW,247,2.7,-999.0,51,-99.99,,,0.00,Acu-Link.com,2013-02-16 00:20:00,
2013-02-15 19:35:00,25.2,9.2,29.92,NW,315,3.7,-999.0,50,-99.99,,,0.00,Acu-Link.com,2013-02-16 00:35:00,
2013-02-15 19:50:00,25.2,9.6,29.92,SSE,157,1.1,-999.0,51,-99.99,,,0.00,Acu-Link.com,2013-02-16 00:50:00,
2013-02-15 20:05:00,25.2,10.1,29.92,WNW,292,2.7,-999.0,52,-99.99,,,0.00,Acu-Link.com,2013-02-16 01:05:00,
2013-02-15 20:21:00,25.2,10.1,29.92,West,270,0.0,-999.0,52,-99.99,,,0.00,Acu-Link.com,2013-02-16 01:21:00,
2013-02-15 20:36:00,25.0,10.3,29.92,North,0,2.2,-999.0,53,-99.99,,,0.00,Acu-Link.com,2013-02-16 01:36:00,
2013-02-15 20:51:00,25.0,10.7,29.92,WSW,247,0.0,-999.0,54,-99.99,,,0.00,Acu-Link.com,2013-02-16 01:51:00,
2013-02-15 21:07:00,24.8,11.0,29.92,West,270,0.0,-999.0,55,-99.99,,,0.00,Acu-Link.com,2013-02-16 02:07:00,
2013-02-15 21:22:00,24.8,11.4,29.92,SSE,157,2.2,-999.0,56,-99.99,,,0.00,Acu-Link.com,2013-02-16 02:22:00,
2013-02-15 21:37:00,24.8,11.0,29.92,SW,225,1.7,-999.0,55,-99.99,,,0.00,Acu-Link.com,2013-02-16 02:37:00,
2013-02-15 21:52:00,25.0,11.5,29.92,West,270,2.7,-999.0,56,-99.99,,,0.00,Acu-Link.com,2013-02-16 02:52:00,
2013-02-15 22:08:00,25.2,12.1,29.92,SW,225,0.0,-999.0,57,-99.99,,,0.00,Acu-Link.com,2013-02-16 03:08:00,
2013-02-15 22:23:00,25.2,12.9,29.92,WNW,292,3.2,-999.0,59,-99.99,,,0.00,Acu-Link.com,2013-02-16 03:23:00,
2013-02-15 22:38:00,25.0,12.7,29.92,ENE,67,1.7,-999.0,59,-99.99,,,0.00,Acu-Link.com,2013-02-16 03:38:00,
2013-02-15 22:54:00,25.2,13.3,29.91,West,270,2.2,-999.0,60,-99.99,,,0.00,Acu-Link.com,2013-02-16 03:54:00,
2013-02-15 23:09:00,24.6,15.2,29.91,West,270,2.7,-999.0,67,-99.99,,,0.00,Acu-Link.com,2013-02-16 04:09:00,
2013-02-15 23:25:00,23.2,15.5,29.92,NNW,337,4.7,-999.0,72,-99.99,,,0.00,Acu-Link.com,2013-02-16 04:25:00,
2013-02-15 23:40:00,22.6,15.6,29.91,NNW,337,4.2,-999.0,74,-99.99,,,0.00,Acu-Link.com,2013-02-16 04:40:00,
2013-02-15 23:55:00,22.6,15.3,29.92,NW,315,3.7,-999.0,73,-99.99,,,0.00,Acu-Link.com,2013-02-16 04:55:00,